Terminal Aerodrome Forecast
Issued by NWS

Home | Current Version | Previous Version | Text Only | Print | Product List | Glossary On
Versions: 1 2 3 4 5 6 7 8 9 10 11 12 13 14
000
FTAK31 PAJN 021422 AAA
TAFAGY
TAF AMD
PAGY 021422Z 0214/0312 VRB03KT 6SM -SHRA BR SCT020 BKN050 OVC080
     FM021800 21008KT P6SM -SHRA SCT025 BKN050 OVC070
     FM030300 VRB04KT P6SM VCSH SCT030 BKN050 OVC100
     FM030900 03005KT P6SM VCSH SCT040 BKN060 OVC120
      AMD LTD TO CLD VIS AND WIND=

USA.gov is the U.S. government's official web portal to all federal, state and local government web resources and services.